Time;durP1;ratioP1;P1;durP2;ratioP2;P2;SDS_P1;SDS_P2;PMS_P1;PMS_P2;Temp;Humidity;BMP_temperature;BMP_pressure;BME280_temperature;BME280_humidity;BME280_pressure;Samples;Min_cycle;Max_cycle;Signal;HPM_P1;HPM_P2
2021/06/23 00:01:26;;;;;;;17.00;7.72;;;;;;;22.12;78.21;98814.64;1796669;80;21054;-86
2021/06/23 00:03:53;;;;;;;17.27;7.00;;;;;;;22.08;77.50;98812.36;1794136;80;20999;-86
2021/06/23 00:06:19;;;;;;;15.72;7.97;;;;;;;22.01;77.49;98808.86;1776827;80;20941;-85
2021/06/23 00:08:46;;;;;;;15.88;7.50;;;;;;;22.00;77.31;98816.45;1766231;81;21055;-86
2021/06/23 00:11:12;;;;;;;15.28;7.33;;;;;;;21.96;78.27;98821.59;1766500;81;20973;-85
2021/06/23 00:13:39;;;;;;;15.58;7.20;;;;;;;21.93;77.11;98814.39;1766385;81;21035;-85
2021/06/23 00:16:08;;;;;;;15.15;7.33;;;;;;;21.90;78.22;98818.09;1768531;80;20990;-87
2021/06/23 00:18:36;;;;;;;15.98;7.67;;;;;;;21.88;77.90;98820.50;1773200;80;21036;-85
2021/06/23 00:21:04;;;;;;;19.30;8.35;;;;;;;21.82;78.90;98813.88;1770670;80;21563;-85
2021/06/23 00:23:30;;;;;;;14.80;8.25;;;;;;;21.80;79.73;98821.08;1796577;80;21079;-86
2021/06/23 00:25:57;;;;;;;15.63;7.62;;;;;;;21.74;78.62;98821.55;1775424;79;21020;-86
2021/06/23 00:28:24;;;;;;;16.45;7.72;;;;;;;21.69;78.76;98827.69;1741036;82;21029;-85
2021/06/23 00:30:51;;;;;;;16.60;8.38;;;;;;;21.68;79.09;98826.81;1741172;82;21022;-86
2021/06/23 00:33:21;;;;;;;12.05;7.83;;;;;;;21.65;78.39;98826.58;1740846;81;21077;-86
2021/06/23 00:35:48;;;;;;;18.30;8.40;;;;;;;21.58;79.41;98825.34;1740713;82;21323;-86
2021/06/23 00:38:15;;;;;;;17.82;7.87;;;;;;;21.50;79.83;98829.52;1751518;81;21011;-85
2021/06/23 00:40:42;;;;;;;18.10;8.33;;;;;;;21.47;79.34;98833.25;1753186;82;21499;-86
2021/06/23 00:43:09;;;;;;;13.15;7.62;;;;;;;21.49;80.83;98831.79;1731821;81;20966;-86
2021/06/23 00:45:36;;;;;;;13.48;7.78;;;;;;;21.45;79.53;98835.16;1766545;81;20997;-86
2021/06/23 00:48:08;;;;;;;13.30;7.17;;;;;;;21.41;80.62;98838.48;1766435;81;20958;-85
2021/06/23 00:50:34;;;;;;;16.25;8.33;;;;;;;21.36;82.10;98841.09;1766307;81;21905;-85
2021/06/23 00:53:05;;;;;;;18.73;7.72;;;;;;;21.24;82.06;98837.06;1766076;81;21009;-85
2021/06/23 00:55:34;;;;;;;11.10;6.85;;;;;;;21.24;81.06;98843.67;1766184;81;20974;-85
2021/06/23 00:58:02;;;;;;;14.18;7.80;;;;;;;21.23;81.54;98848.61;1766715;81;21009;-85
2021/06/23 01:00:32;;;;;;;15.15;7.47;;;;;;;21.24;81.09;98844.16;1767133;81;21028;-86
2021/06/23 01:03:03;;;;;;;19.92;7.97;;;;;;;21.24;80.97;98842.83;1758809;81;21078;-84
2021/06/23 01:05:32;;;;;;;13.03;7.97;;;;;;;21.26;81.12;98840.44;1741023;82;21098;-85
2021/06/23 01:07:58;;;;;;;13.30;7.50;;;;;;;21.29;81.23;98842.48;1735848;81;21888;-85
2021/06/23 01:10:34;;;;;;;13.45;7.72;;;;;;;21.28;81.02;98832.88;1766798;81;20997;-85
2021/06/23 01:13:16;;;;;;;19.95;8.00;;;;;;;21.28;81.45;98827.11;1747318;81;21021;-85
2021/06/23 01:15:47;;;;;;;14.33;7.90;;;;;;;21.29;81.14;98835.42;1740719;82;21052;-84
2021/06/23 01:18:15;;;;;;;12.35;7.90;;;;;;;21.27;82.56;98838.66;1740655;82;21027;-85
2021/06/23 01:20:44;;;;;;;17.77;8.48;;;;;;;21.18;81.38;98837.51;1727016;82;21102;-85
2021/06/23 01:23:16;;;;;;;11.65;7.50;;;;;;;21.16;82.30;98835.45;1711271;84;21046;-84
2021/06/23 01:25:44;;;;;;;20.48;8.08;;;;;;;21.16;82.15;98828.84;1708979;83;21067;-85
2021/06/23 01:28:11;;;;;;;13.72;8.10;;;;;;;21.15;81.96;98832.92;1706629;84;21076;-85
2021/06/23 01:30:40;;;;;;;16.77;8.50;;;;;;;21.14;80.95;98832.08;1722868;81;20969;-85
2021/06/23 01:33:20;;;;;;;13.08;7.80;;;;;;;21.06;81.68;98829.99;1728982;82;21033;-85
2021/06/23 01:35:47;;;;;;;17.45;7.97;;;;;;;21.04;82.41;98817.86;1730527;83;21079;-85
2021/06/23 01:38:14;;;;;;;19.05;8.38;;;;;;;21.03;81.63;98825.44;1730898;83;21011;-85
2021/06/23 01:40:43;;;;;;;16.00;7.65;;;;;;;21.01;81.64;98822.89;1730180;83;20979;-85
2021/06/23 01:43:11;;;;;;;16.82;7.60;;;;;;;21.04;82.76;98826.62;1730178;83;21072;-84
2021/06/23 01:45:40;;;;;;;12.80;7.55;;;;;;;21.08;82.70;98830.38;1730211;83;21007;-85
2021/06/23 01:48:08;;;;;;;11.25;7.35;;;;;;;21.09;82.92;98825.44;1730210;83;21071;-85
2021/06/23 01:50:36;;;;;;;19.60;8.33;;;;;;;21.13;82.44;98821.61;1731234;80;20987;-86
2021/06/23 01:53:03;;;;;;;14.07;7.42;;;;;;;21.14;81.50;98818.03;1728551;81;21046;-84
2021/06/23 01:55:30;;;;;;;14.10;8.23;;;;;;;21.15;81.57;98817.06;1728800;81;21011;-85
2021/06/23 01:58:08;;;;;;;15.18;7.47;;;;;;;21.17;81.78;98825.72;1732748;83;21036;-85
2021/06/23 02:01:06;;;;;;;15.03;7.03;;;;;;;21.18;81.94;98830.90;1733254;83;21046;-85
2021/06/23 02:03:46;;;;;;;16.67;7.87;;;;;;;21.16;81.96;98833.30;1735102;82;21067;-82
2021/06/23 02:06:56;;;;;;;14.20;7.62;;;;;;;21.13;81.87;98842.30;1733306;81;21075;-85
2021/06/23 02:10:04;;;;;;;23.27;8.08;;;;;;;21.08;82.21;98834.34;1670957;84;21047;-85
2021/06/23 02:13:23;;;;;;;16.70;7.22;;;;;;;21.04;82.06;98837.67;1706760;84;21066;-85
2021/06/23 02:15:52;;;;;;;15.03;7.70;;;;;;;20.99;81.27;98832.73;1703024;81;21000;-85
2021/06/23 02:18:21;;;;;;;12.63;7.70;;;;;;;20.94;80.70;98832.70;1735230;83;21087;-85
2021/06/23 02:20:56;;;;;;;12.07;7.90;;;;;;;20.85;81.17;98825.80;1730745;83;21111;-84
2021/06/23 02:23:24;;;;;;;14.47;8.30;;;;;;;20.80;82.42;98831.88;1735123;81;21011;-85
2021/06/23 02:25:52;;;;;;;20.17;7.97;;;;;;;20.75;81.94;98828.73;1755148;80;21041;-84
2021/06/23 02:28:21;;;;;;;17.77;7.28;;;;;;;20.71;81.97;98831.69;1784747;80;21050;-83
2021/06/23 02:30:51;;;;;;;20.62;7.72;;;;;;;20.66;81.98;98826.73;1784622;80;21019;-85
2021/06/23 02:33:20;;;;;;;20.80;8.20;;;;;;;20.60;82.74;98831.97;1796868;78;21008;-85
2021/06/23 02:35:50;;;;;;;14.80;7.78;;;;;;;20.57;82.35;98835.27;1769837;80;21035;-84
2021/06/23 02:38:19;;;;;;;16.25;7.45;;;;;;;20.52;83.32;98832.96;1799016;80;21060;-86
2021/06/23 02:40:47;;;;;;;15.53;7.35;;;;;;;20.49;82.90;98829.69;1798328;80;21071;-84
2021/06/23 02:43:13;;;;;;;13.43;7.33;;;;;;;20.48;83.56;98841.21;1776429;80;21544;-86
2021/06/23 02:45:42;;;;;;;16.27;7.80;;;;;;;20.43;83.06;98842.38;1773743;81;21332;-87
2021/06/23 02:48:09;;;;;;;14.95;7.50;;;;;;;20.41;83.85;98844.28;1773876;81;20978;-86
2021/06/23 02:51:03;;;;;;;20.32;7.95;;;;;;;20.38;84.51;98851.09;1771806;81;21018;-87
2021/06/23 02:53:33;;;;;;;27.77;8.30;;;;;;;20.32;84.52;98855.95;1743985;81;21066;-85
2021/06/23 02:56:00;;;;;;;19.35;7.87;;;;;;;20.21;86.84;98861.50;1791607;80;20984;-87
2021/06/23 02:58:31;;;;;;;25.72;8.43;;;;;;;20.17;85.70;98864.44;1801163;80;20937;-87
2021/06/23 03:00:59;;;;;;;21.30;7.55;;;;;;;20.17;84.71;98866.59;1788364;80;21007;-87
2021/06/23 03:03:27;;;;;;;24.18;7.80;;;;;;;20.20;84.78;98870.36;1792869;80;20992;-84
2021/06/23 03:05:54;;;;;;;18.60;8.63;;;;;;;20.23;85.11;98867.52;1769574;80;20985;-84
2021/06/23 03:08:22;;;;;;;22.98;7.95;;;;;;;20.26;85.18;98861.17;1769526;80;21063;-85
2021/06/23 03:10:49;;;;;;;23.52;8.10;;;;;;;20.29;85.34;98866.23;1769554;80;21039;-84
2021/06/23 03:13:23;;;;;;;16.05;7.67;;;;;;;20.32;85.32;98869.98;1731934;82;21048;-85
2021/06/23 03:15:50;;;;;;;14.07;7.33;;;;;;;20.35;85.01;98867.16;1740922;82;21036;-84
2021/06/23 03:18:19;;;;;;;24.00;7.92;;;;;;;20.37;84.24;98872.30;1740625;82;20969;-85
2021/06/23 03:20:46;;;;;;;18.48;8.53;;;;;;;20.39;84.27;98869.95;1733005;80;21028;-85
2021/06/23 03:23:13;;;;;;;23.25;8.18;;;;;;;20.40;83.91;98868.98;1791782;80;21031;-85
2021/06/23 03:25:40;;;;;;;21.20;8.23;;;;;;;20.43;84.10;98870.11;1796683;80;21030;-85
2021/06/23 03:28:07;;;;;;;17.32;7.62;;;;;;;20.42;84.34;98866.25;1796576;80;20988;-86
2021/06/23 03:30:37;;;;;;;18.02;7.25;;;;;;;20.53;84.56;98873.41;1796609;79;21036;-84
2021/06/23 03:33:04;;;;;;;22.70;8.60;;;;;;;20.57;84.99;98872.23;1796766;79;21000;-85
2021/06/23 03:35:33;;;;;;;20.80;7.55;;;;;;;20.61;83.98;98879.02;1782777;78;21090;-86
2021/06/23 03:38:00;;;;;;;18.55;8.28;;;;;;;20.67;84.77;98885.20;1745375;81;21279;-85
2021/06/23 03:40:27;;;;;;;20.15;8.53;;;;;;;20.74;84.33;98881.67;1766705;81;21011;-85
2021/06/23 03:42:54;;;;;;;15.32;8.33;;;;;;;20.79;85.01;98888.32;1766895;81;21026;-86
2021/06/23 03:45:21;;;;;;;13.70;8.00;;;;;;;20.85;84.05;98891.02;1775309;80;20969;-85
2021/06/23 03:47:48;;;;;;;17.42;7.75;;;;;;;20.94;84.14;98898.75;1771819;80;20999;-85
2021/06/23 03:50:17;;;;;;;22.67;8.00;;;;;;;21.00;83.84;98895.67;1796455;80;21015;-85
2021/06/23 03:52:44;;;;;;;18.92;7.70;;;;;;;21.08;83.86;98897.28;1796463;80;21016;-85
2021/06/23 03:55:35;;;;;;;17.80;7.72;;;;;;;21.19;83.61;98903.14;1773338;80;21055;-85
2021/06/23 03:57:42;;;;;;;23.65;8.90;;;;;;;21.29;83.51;98909.91;1782424;79;21016;-86
2021/06/23 04:00:11;;;;;;;19.95;8.10;;;;;;;21.37;83.37;98910.22;1796674;80;21055;-86
2021/06/23 04:02:39;;;;;;;22.77;8.58;;;;;;;21.43;84.20;98915.09;1795599;80;21047;-85
2021/06/23 04:05:10;;;;;;;17.42;9.00;;;;;;;21.48;83.35;98913.42;1786214;80;20977;-85
2021/06/23 04:07:41;;;;;;;14.43;7.75;;;;;;;21.53;83.16;98913.95;1758362;80;21020;-86
2021/06/23 04:10:09;;;;;;;18.65;9.78;;;;;;;21.55;83.32;98922.12;1795771;80;21028;-86
2021/06/23 04:12:37;;;;;;;17.40;8.80;;;;;;;21.60;82.74;98921.30;1795743;80;21488;-85
2021/06/23 04:15:10;;;;;;;18.17;8.90;;;;;;;21.63;81.51;98929.02;1778963;80;20997;-85
2021/06/23 04:17:38;;;;;;;15.20;8.23;;;;;;;21.59;83.09;98928.05;1766428;81;21017;-85
2021/06/23 04:20:09;;;;;;;21.95;9.75;;;;;;;21.58;81.59;98931.14;1766144;80;21116;-84
2021/06/23 04:22:52;;;;;;;18.52;9.35;;;;;;;21.58;81.37;98931.14;1762539;81;22170;-85
2021/06/23 04:25:20;;;;;;;23.92;8.83;;;;;;;21.60;81.42;98934.52;1764888;81;21579;-83
2021/06/23 04:27:47;;;;;;;22.30;9.50;;;;;;;21.63;81.96;98937.44;1765117;81;21083;-84
2021/06/23 04:30:16;;;;;;;21.48;8.60;;;;;;;21.68;82.36;98939.25;1765456;81;21041;-84
2021/06/23 04:32:42;;;;;;;16.35;8.98;;;;;;;21.73;82.01;98939.77;1764959;80;21049;-84
2021/06/23 04:35:12;;;;;;;24.20;10.53;;;;;;;21.79;81.83;98936.67;1763268;80;21078;-83
2021/06/23 04:37:42;;;;;;;32.50;12.00;;;;;;;21.84;81.29;98939.83;1764535;81;21510;-84
2021/06/23 04:40:15;;;;;;;26.45;9.45;;;;;;;21.88;82.21;98946.20;1764851;80;21466;-83
2021/06/23 04:42:44;;;;;;;29.37;9.28;;;;;;;21.97;81.55;98942.40;1769638;80;21027;-84
2021/06/23 04:45:14;;;;;;;30.30;9.75;;;;;;;22.05;81.33;98949.28;1766403;80;21052;-83
2021/06/23 04:47:54;;;;;;;22.45;9.83;;;;;;;22.13;81.33;98945.23;1727843;80;21022;-83
2021/06/23 04:50:22;;;;;;;19.67;8.60;;;;;;;22.19;81.32;98947.41;1764957;81;21079;-83
2021/06/23 04:52:59;;;;;;;23.45;8.50;;;;;;;22.30;80.92;98955.89;1758825;80;21043;-83
2021/06/23 04:55:27;;;;;;;18.05;9.45;;;;;;;22.37;80.66;98951.83;1758891;81;20995;-84
2021/06/23 04:58:04;;;;;;;21.33;10.05;;;;;;;22.47;80.71;98950.16;1759323;81;21062;-86
2021/06/23 05:00:31;;;;;;;34.95;16.52;;;;;;;22.58;80.51;98955.94;1766979;80;20951;-85
2021/06/23 05:02:58;;;;;;;20.88;11.38;;;;;;;22.67;80.21;98963.68;1787114;80;21231;-84
2021/06/23 05:05:24;;;;;;;18.60;9.98;;;;;;;22.76;80.03;98965.14;1789305;80;21015;-86
2021/06/23 05:07:54;;;;;;;16.93;9.48;;;;;;;22.86;79.61;98957.31;1776953;80;21071;-86
2021/06/23 05:10:22;;;;;;;20.48;10.23;;;;;;;22.94;79.32;98952.26;1790224;80;20976;-86
2021/06/23 05:12:49;;;;;;;26.75;9.38;;;;;;;23.02;78.70;98959.16;1794529;80;21028;-86
2021/06/23 05:15:16;;;;;;;20.52;9.65;;;;;;;23.05;78.13;98952.75;1796361;79;21016;-86
2021/06/23 05:17:43;;;;;;;21.55;10.25;;;;;;;23.00;78.36;98949.61;1796903;80;21075;-87
2021/06/23 05:20:11;;;;;;;20.23;10.48;;;;;;;23.03;79.13;98951.55;1796475;80;21043;-86
2021/06/23 05:22:38;;;;;;;22.73;10.23;;;;;;;23.10;78.44;98951.06;1750203;81;20986;-85
2021/06/23 05:25:06;;;;;;;18.70;9.53;;;;;;;23.12;78.29;98952.64;1766641;81;21064;-85
2021/06/23 05:27:33;;;;;;;19.35;9.83;;;;;;;23.21;78.27;98957.20;1760474;81;21050;-86
2021/06/23 05:29:59;;;;;;;24.63;10.98;;;;;;;23.29;78.08;98960.56;1756331;82;21019;-84
2021/06/23 05:32:26;;;;;;;17.00;9.10;;;;;;;23.36;77.89;98963.10;1756841;82;21101;-86
2021/06/23 05:34:53;;;;;;;19.75;9.40;;;;;;;23.42;77.81;98957.30;1756279;82;20980;-86
2021/06/23 05:37:19;;;;;;;25.05;10.08;;;;;;;23.53;77.50;98953.77;1758255;82;21028;-86
2021/06/23 05:39:46;;;;;;;25.52;9.63;;;;;;;23.53;76.78;98955.09;1757603;81;21001;-84
2021/06/23 05:42:12;;;;;;;20.50;9.15;;;;;;;23.62;76.94;98960.99;1760631;81;20977;-86
2021/06/23 05:44:39;;;;;;;26.50;10.38;;;;;;;23.70;77.11;98961.70;1768083;79;21056;-86
2021/06/23 05:47:05;;;;;;;22.13;10.48;;;;;;;23.84;77.15;98965.91;1764757;80;21029;-87
2021/06/23 05:49:32;;;;;;;28.40;10.60;;;;;;;23.97;77.10;98969.25;1758249;82;21086;-89
2021/06/23 05:51:59;;;;;;;18.75;11.10;;;;;;;24.12;76.96;98970.27;1758552;82;20994;-86
2021/06/23 05:54:25;;;;;;;26.33;12.53;;;;;;;24.27;76.45;98976.94;1758657;82;21019;-89
2021/06/23 05:56:52;;;;;;;24.15;11.40;;;;;;;24.35;75.72;98976.30;1758491;82;21022;-89
2021/06/23 05:59:19;;;;;;;64.42;36.55;;;;;;;24.38;75.49;98984.86;1757885;82;21067;-87
2021/06/23 06:01:45;;;;;;;52.67;28.52;;;;;;;24.47;75.33;98978.41;1771230;81;21022;-89
2021/06/23 06:04:12;;;;;;;25.17;12.43;;;;;;;24.52;74.64;98977.08;1770028;81;21022;-88
2021/06/23 06:06:38;;;;;;;22.05;11.57;;;;;;;24.58;74.46;98974.39;1783759;80;21026;-87
2021/06/23 06:09:05;;;;;;;23.85;10.60;;;;;;;24.68;74.35;98977.11;1767070;80;21036;-87
2021/06/23 06:14:33;;;;;;;31.68;11.73;;;;;;;24.88;73.44;98980.72;1676282;84;21104;-86
2021/06/23 06:17:00;;;;;;;35.80;10.55;;;;;;;24.92;72.42;98983.47;1644745;87;21060;-86
2021/06/23 06:19:27;;;;;;;26.45;12.20;;;;;;;24.99;72.68;98985.95;1675856;86;20981;-87
2021/06/23 06:21:54;;;;;;;24.85;10.35;;;;;;;25.07;72.67;98978.61;1645102;87;21084;-89
2021/06/23 06:24:22;;;;;;;20.43;9.43;;;;;;;25.16;72.50;98977.33;1645304;87;21083;-86
2021/06/23 06:29:38;;;;;;;18.40;8.80;;;;;;;25.23;70.76;98985.66;1620273;86;22532;-84
2021/06/23 06:35:09;;;;;;;20.40;9.75;;;;;;;25.31;70.77;98991.65;1621717;82;21126;-90
2021/06/23 06:56:22;;;;;;;21.85;8.80;;;;;;;25.82;68.92;98991.95;1686674;81;21089;-89
2021/06/23 06:58:49;;;;;;;22.37;9.13;;;;;;;25.90;68.62;98996.13;1690170;82;21172;-86
2021/06/23 07:01:16;;;;;;;24.43;7.60;;;;;;;26.01;68.91;98999.66;1654343;85;21058;-85
2021/06/23 07:03:42;;;;;;;25.40;8.60;;;;;;;26.05;68.30;99001.06;1658871;85;21061;-86
2021/06/23 07:06:09;;;;;;;23.35;7.47;;;;;;;26.11;67.86;98997.34;1690645;81;21010;-87
2021/06/23 07:08:36;;;;;;;25.80;7.65;;;;;;;26.14;67.68;98997.55;1718611;79;21125;-89
2021/06/23 07:11:03;;;;;;;20.15;8.45;;;;;;;26.13;67.28;98999.88;1740766;80;21058;-88
2021/06/23 07:13:40;;;;;;;23.52;7.20;;;;;;;26.16;68.04;98987.58;1680741;84;21086;-88
2021/06/23 07:16:09;;;;;;;21.20;7.47;;;;;;;26.25;67.81;98997.41;1699248;84;21030;-87
2021/06/23 07:21:40;;;;;;;73.92;41.80;;;;;;;26.45;67.73;98993.41;1672030;85;21145;-86
2021/06/23 07:24:09;;;;;;;30.32;11.25;;;;;;;26.53;67.78;98994.86;1668890;85;21078;-87
2021/06/23 07:26:38;;;;;;;22.67;7.58;;;;;;;26.62;67.15;98991.38;1740507;82;20961;-87
2021/06/23 07:29:08;;;;;;;17.85;6.92;;;;;;;26.78;66.77;98986.78;1738595;82;21021;-90
2021/06/23 07:36:47;;;;;;;27.90;7.33;;;;;;;27.02;64.87;98988.08;1717802;83;20991;-88
2021/06/23 07:39:13;;;;;;;23.60;7.83;;;;;;;27.10;64.92;98993.05;1692104;85;21093;-86
2021/06/23 07:41:43;;;;;;;25.92;7.45;;;;;;;27.14;64.66;98991.77;1679579;85;21041;-87
2021/06/23 07:44:12;;;;;;;24.23;7.35;;;;;;;27.15;64.64;98988.59;1694055;85;21071;-88
2021/06/23 07:46:48;;;;;;;24.90;7.40;;;;;;;27.23;64.86;98992.70;1723062;83;20974;-89
2021/06/23 07:49:10;;;;;;;20.32;7.53;;;;;;;27.30;64.20;98992.50;1629489;81;21119;-88
2021/06/23 07:51:59;;;;;;;28.65;6.83;;;;;;;27.37;64.14;98986.06;1649725;83;21174;-87
2021/06/23 07:55:08;;;;;;;18.92;7.42;;;;;;;27.43;64.43;98993.47;1652934;85;21086;-85
2021/06/23 08:01:14;;;;;;;19.73;7.30;;;;;;;27.56;64.56;98989.97;1623885;86;21029;-89
2021/06/23 08:10:47;;;;;;;22.80;6.67;;;;;;;28.01;62.42;98987.44;1668164;81;21103;-85
2021/06/23 08:13:15;;;;;;;23.25;6.42;;;;;;;28.12;62.31;99003.25;1676239;84;21598;-84
2021/06/23 08:15:45;;;;;;;27.58;6.78;;;;;;;28.17;60.35;98991.59;1680502;82;21069;-86
2021/06/23 08:18:14;;;;;;;19.80;7.22;;;;;;;28.26;61.63;98990.68;1697828;82;21090;-86
2021/06/23 08:20:41;;;;;;;25.50;6.75;;;;;;;28.35;60.20;98994.25;1713259;84;20999;-89
2021/06/23 08:23:09;;;;;;;22.10;6.22;;;;;;;28.47;60.23;98989.50;1706142;84;21073;-87
2021/06/23 08:25:36;;;;;;;30.43;7.17;;;;;;;28.53;59.51;98985.75;1698309;85;20999;-89
2021/06/23 08:28:04;;;;;;;27.98;6.40;;;;;;;28.59;58.56;98996.80;1705454;84;21016;-89
